createdAt,value
2023-02-16T00:00:53.059Z,-0.80
2023-02-16T00:03:24.842Z,-0.80
2023-02-16T00:05:56.610Z,-0.80
2023-02-16T00:08:28.311Z,-0.80
2023-02-16T00:11:18.617Z,-0.80
2023-02-16T00:13:53.120Z,-0.80
2023-02-16T00:16:25.272Z,-0.80
2023-02-16T00:18:56.981Z,-0.70
2023-02-16T00:21:28.731Z,-0.70
2023-02-16T00:24:00.482Z,-0.70
2023-02-16T00:26:34.922Z,-0.70
2023-02-16T00:29:06.631Z,-0.70
2023-02-16T00:31:38.416Z,-0.70
2023-02-16T00:34:30.523Z,-0.70
2023-02-16T00:37:05.107Z,-0.80
2023-02-16T00:39:38.290Z,-0.80
2023-02-16T00:42:20.745Z,-0.90
2023-02-16T00:44:55.611Z,-0.90
2023-02-16T00:47:37.247Z,-0.70
2023-02-16T00:50:22.332Z,-0.90
2023-02-16T00:52:54.118Z,-0.90
2023-02-16T00:55:35.180Z,-0.60
2023-02-16T00:58:24.244Z,-1.00
2023-02-16T01:01:00.915Z,-1.00
2023-02-16T01:03:32.748Z,-1.00
2023-02-16T01:06:23.361Z,-0.80
2023-02-16T01:09:21.274Z,-1.00
2023-02-16T01:11:52.974Z,-0.90
2023-02-16T01:14:25.100Z,-1.00
2023-02-16T01:16:57.828Z,-0.70
2023-02-16T01:19:29.574Z,-0.90
2023-02-16T01:22:01.257Z,-0.90
2023-02-16T01:24:33.182Z,-0.90
2023-02-16T01:27:04.879Z,-0.70
2023-02-16T01:29:36.592Z,-0.80
2023-02-16T01:32:12.536Z,-0.80
2023-02-16T01:34:44.401Z,-0.80
2023-02-16T01:37:16.557Z,-0.80
2023-02-16T01:39:49.179Z,-0.80
2023-02-16T01:42:38.638Z,-0.90
2023-02-16T01:45:33.920Z,-0.80
2023-02-16T01:48:13.847Z,-0.80
2023-02-16T01:51:12.840Z,-0.90
2023-02-16T01:53:50.383Z,-0.90
2023-02-16T01:56:59.844Z,-0.80
2023-02-16T01:59:31.532Z,-0.90
2023-02-16T02:02:11.826Z,-0.90
2023-02-16T02:05:23.720Z,-0.90
2023-02-16T02:08:26.557Z,-0.90
2023-02-16T02:11:30.199Z,-0.80
2023-02-16T02:14:07.178Z,-0.90
2023-02-16T02:16:39.707Z,-0.70
2023-02-16T02:19:11.412Z,-0.90
2023-02-16T02:22:22.426Z,-0.80
2023-02-16T02:25:51.637Z,-0.90
2023-02-16T02:28:41.976Z,-0.90
2023-02-16T02:31:13.873Z,-0.90
2023-02-16T02:34:08.346Z,-0.80
2023-02-16T02:36:56.391Z,-0.90
2023-02-16T02:40:03.241Z,-0.90
2023-02-16T02:42:56.953Z,-0.90
2023-02-16T02:45:36.351Z,-0.90
2023-02-16T02:48:08.152Z,-0.90
2023-02-16T02:50:39.884Z,-0.90
2023-02-16T02:53:16.410Z,-0.90
2023-02-16T02:56:08.753Z,-0.80
2023-02-16T02:59:00.488Z,-0.80
2023-02-16T03:01:35.303Z,-0.80
2023-02-16T03:04:10.155Z,-0.80
2023-02-16T03:06:48.120Z,-0.80
2023-02-16T03:09:20.832Z,-0.80
2023-02-16T03:12:13.063Z,-0.70
2023-02-16T03:14:49.949Z,-0.70
2023-02-16T03:17:46.386Z,-0.70
2023-02-16T03:20:37.434Z,-0.70
2023-02-16T03:23:27.906Z,-0.70
2023-02-16T03:26:18.640Z,-0.70
2023-02-16T03:29:09.749Z,-0.70
2023-02-16T03:31:42.107Z,-0.70
2023-02-16T03:34:15.435Z,-0.70
2023-02-16T03:36:50.198Z,-0.80
2023-02-16T03:39:21.939Z,-0.80
2023-02-16T03:41:55.461Z,-0.80
2023-02-16T03:44:27.325Z,-0.80
2023-02-16T03:46:59.106Z,-0.80
2023-02-16T03:49:30.879Z,-0.80
2023-02-16T03:52:02.593Z,-0.80
2023-02-16T03:54:34.318Z,-0.80
2023-02-16T03:57:06.200Z,-0.80
2023-02-16T03:59:37.914Z,-0.80
2023-02-16T04:02:09.692Z,-0.80
2023-02-16T04:04:41.398Z,-0.80
2023-02-16T04:07:13.348Z,-0.80
2023-02-16T04:09:45.085Z,-0.80
2023-02-16T04:12:35.601Z,-0.70
2023-02-16T04:15:10.883Z,-0.70
2023-02-16T04:17:43.102Z,-0.60
2023-02-16T04:20:18.061Z,-0.70
2023-02-16T04:22:50.578Z,-0.70
2023-02-16T04:25:22.713Z,-0.70
2023-02-16T04:27:54.735Z,-0.80
2023-02-16T04:30:29.764Z,-0.70
2023-02-16T04:33:01.558Z,-0.80
2023-02-16T04:35:33.270Z,-0.80
2023-02-16T04:38:04.986Z,-0.80
2023-02-16T04:40:36.701Z,-0.80
2023-02-16T04:43:08.458Z,-0.80
2023-02-16T04:45:40.168Z,-0.80
2023-02-16T04:48:11.864Z,-0.80
2023-02-16T04:50:43.606Z,-0.80
2023-02-16T04:53:15.328Z,-0.80
2023-02-16T04:55:48.172Z,-0.80
2023-02-16T04:58:19.863Z,-0.80
2023-02-16T05:00:51.598Z,-0.80
2023-02-16T05:03:23.332Z,-0.80
2023-02-16T05:05:55.315Z,-0.90
2023-02-16T05:08:27.234Z,-0.80
2023-02-16T05:11:17.380Z,-0.80
2023-02-16T05:14:07.790Z,-0.90
2023-02-16T05:16:39.509Z,-0.90
2023-02-16T05:19:11.988Z,-0.90
2023-02-16T05:21:43.714Z,-0.90
2023-02-16T05:24:15.420Z,-0.90
2023-02-16T05:26:47.161Z,-0.90
2023-02-16T05:29:18.882Z,-0.90
2023-02-16T05:31:50.758Z,-0.90
2023-02-16T05:34:22.612Z,-0.90
2023-02-16T05:36:55.178Z,-0.80
2023-02-16T05:39:26.920Z,-0.80
2023-02-16T05:41:58.754Z,-0.90
2023-02-16T05:44:30.644Z,-0.80
2023-02-16T05:47:02.384Z,-0.80
2023-02-16T05:49:34.290Z,-0.80
2023-02-16T05:52:06.127Z,-0.80
2023-02-16T05:54:37.877Z,-0.80
2023-02-16T05:57:10.096Z,-0.80
2023-02-16T05:59:41.793Z,-0.80
2023-02-16T06:02:13.574Z,-0.90
2023-02-16T06:04:45.361Z,-0.90
2023-02-16T06:07:17.119Z,-0.80
2023-02-16T06:09:48.842Z,-0.80
2023-02-16T06:12:20.599Z,-0.80
2023-02-16T06:14:52.386Z,-0.80
2023-02-16T06:17:24.270Z,-0.90
2023-02-16T06:19:55.971Z,-0.90
2023-02-16T06:22:27.683Z,-0.90
2023-02-16T06:24:59.394Z,-0.90
2023-02-16T06:27:31.351Z,-0.90
2023-02-16T06:30:04.104Z,-0.90
2023-02-16T06:32:36.097Z,-0.80
2023-02-16T06:35:08.131Z,-0.80
2023-02-16T06:37:39.879Z,-0.80
2023-02-16T06:40:15.963Z,-0.80
2023-02-16T06:42:47.719Z,-0.70
2023-02-16T06:45:19.751Z,-0.70
2023-02-16T06:47:51.486Z,-0.80
2023-02-16T06:50:23.266Z,-0.80
2023-02-16T06:52:55.074Z,-0.70
2023-02-16T06:55:26.783Z,-0.70
2023-02-16T06:57:58.510Z,-0.70
2023-02-16T07:00:30.588Z,-0.70
2023-02-16T07:03:02.585Z,-0.70
2023-02-16T07:05:34.441Z,-0.70
2023-02-16T07:08:06.239Z,-0.70
2023-02-16T07:10:49.503Z,-0.70
2023-02-16T07:13:22.141Z,-0.60
2023-02-16T07:15:53.905Z,-0.60
2023-02-16T07:18:25.634Z,-0.60
2023-02-16T07:20:57.367Z,-0.60
2023-02-16T07:23:29.111Z,-0.50
2023-02-16T07:26:00.911Z,-0.60
2023-02-16T07:28:32.652Z,-0.50
2023-02-16T07:31:12.714Z,-0.50
2023-02-16T07:33:45.177Z,-0.60
2023-02-16T07:36:16.880Z,-0.60
2023-02-16T07:38:48.652Z,-0.60
2023-02-16T07:41:20.670Z,-0.50
2023-02-16T07:43:52.381Z,-0.50
2023-02-16T07:46:24.209Z,-0.50
2023-02-16T07:48:55.929Z,-0.50
2023-02-16T07:51:30.724Z,-0.40
2023-02-16T07:54:02.615Z,-0.40
2023-02-16T07:56:35.611Z,-0.40
2023-02-16T07:59:07.468Z,-0.40
2023-02-16T08:01:39.993Z,-0.30
2023-02-16T08:04:11.835Z,-0.30
2023-02-16T08:06:44.071Z,-0.20
2023-02-16T08:09:15.894Z,-0.20
2023-02-16T08:11:47.615Z,-0.30
2023-02-16T08:14:19.361Z,-0.30
2023-02-16T08:16:54.167Z,-0.30
2023-02-16T08:19:29.146Z,-0.20
2023-02-16T08:22:02.493Z,-0.20
2023-02-16T08:24:35.165Z,-0.30
2023-02-16T08:27:07.353Z,-0.30
2023-02-16T08:29:39.210Z,-0.30
2023-02-16T08:32:13.104Z,-0.30
2023-02-16T08:34:44.971Z,-0.30
2023-02-16T08:37:16.693Z,-0.20
2023-02-16T08:39:49.181Z,-0.20
2023-02-16T08:42:21.279Z,-0.20
2023-02-16T08:44:53.209Z,-0.10
2023-02-16T08:47:24.955Z,-0.10
2023-02-16T08:49:56.781Z,-0.10
2023-02-16T08:52:28.962Z,-0.10
2023-02-16T08:55:00.726Z,0.00
2023-02-16T08:57:35.766Z,0.00
2023-02-16T09:00:26.847Z,0.00
2023-02-16T09:02:59.876Z,0.00
2023-02-16T09:05:31.591Z,-0.10
2023-02-16T09:08:03.420Z,0.00
2023-02-16T09:10:35.209Z,0.00
2023-02-16T09:13:10.585Z,0.10
2023-02-16T09:15:45.663Z,0.10
2023-02-16T09:18:17.421Z,0.10
2023-02-16T09:20:49.146Z,0.10
2023-02-16T09:23:21.990Z,0.10
2023-02-16T09:25:53.865Z,0.10
2023-02-16T09:28:25.572Z,0.20
2023-02-16T09:30:57.388Z,0.30
2023-02-16T09:33:29.180Z,0.30
2023-02-16T09:36:05.521Z,0.30
2023-02-16T09:38:41.565Z,0.30
2023-02-16T09:41:51.860Z,0.30
2023-02-16T09:44:49.219Z,0.30
2023-02-16T09:47:33.679Z,0.30
2023-02-16T09:50:17.099Z,0.30
2023-02-16T09:53:03.605Z,0.40
2023-02-16T09:56:13.957Z,0.40
2023-02-16T09:59:12.632Z,0.40
2023-02-16T10:01:50.495Z,0.30
2023-02-16T10:04:31.893Z,0.30
2023-02-16T10:07:24.625Z,0.30
2023-02-16T10:09:58.829Z,0.30
2023-02-16T10:12:41.268Z,0.40
2023-02-16T10:15:26.539Z,0.40
2023-02-16T10:18:02.950Z,-0.40
2023-02-16T10:20:40.678Z,0.50
2023-02-16T10:23:44.992Z,0.50
2023-02-16T10:26:40.594Z,0.60
2023-02-16T10:29:19.324Z,0.70
2023-02-16T10:32:00.039Z,0.70
2023-02-16T10:34:45.355Z,0.80
2023-02-16T10:37:39.255Z,0.80
2023-02-16T10:40:23.210Z,0.70
2023-02-16T10:43:03.948Z,0.70
2023-02-16T10:45:52.731Z,0.70
2023-02-16T10:48:26.195Z,0.80
2023-02-16T10:51:09.171Z,0.80
2023-02-16T10:53:49.961Z,0.90
2023-02-16T10:56:33.519Z,0.90
2023-02-16T10:59:12.860Z,2.50
2023-02-16T11:02:06.625Z,1.00
2023-02-16T11:04:43.297Z,1.00
2023-02-16T11:07:22.093Z,1.10
2023-02-16T11:09:56.250Z,1.10
2023-02-16T11:12:35.106Z,1.20
2023-02-16T11:15:17.550Z,1.20
2023-02-16T11:18:04.773Z,1.20
2023-02-16T11:20:44.968Z,1.10
2023-02-16T11:23:26.885Z,1.20
2023-02-16T11:26:11.727Z,1.20
2023-02-16T11:28:44.965Z,1.20
2023-02-16T11:31:18.791Z,1.20
2023-02-16T11:34:01.233Z,1.30
2023-02-16T11:36:39.911Z,1.30
2023-02-16T11:39:20.474Z,1.40
2023-02-16T11:41:54.079Z,1.40
2023-02-16T11:44:28.614Z,1.50
2023-02-16T11:47:07.925Z,1.50
2023-02-16T11:49:41.761Z,1.50
2023-02-16T11:52:29.211Z,1.50
2023-02-16T11:55:02.263Z,1.50
2023-02-16T11:57:36.764Z,2.00
2023-02-16T12:00:35.047Z,1.50
2023-02-16T12:03:33.652Z,1.40
2023-02-16T12:06:33.599Z,1.40
2023-02-16T12:22:26.294Z,1.40
2023-02-16T12:25:25.481Z,1.60
2023-02-16T12:28:16.401Z,1.70
2023-02-16T12:31:26.763Z,1.70
2023-02-16T12:34:36.729Z,1.70
2023-02-16T12:37:26.781Z,1.70
2023-02-16T12:40:22.187Z,1.60
2023-02-16T12:43:32.245Z,1.60
2023-02-16T12:46:28.118Z,1.70
2023-02-16T12:49:13.934Z,1.80
2023-02-16T12:51:53.060Z,1.80
2023-02-16T12:54:33.094Z,1.90
2023-02-16T12:57:13.779Z,1.90
2023-02-16T12:59:55.383Z,2.00
2023-02-16T13:02:40.544Z,2.00
2023-02-16T13:05:25.973Z,2.10
2023-02-16T13:08:07.976Z,2.10
2023-02-16T13:11:07.443Z,2.20
2023-02-16T13:13:41.316Z,2.20
2023-02-16T13:16:30.504Z,2.20
2023-02-16T13:19:02.835Z,2.20
2023-02-16T13:21:52.881Z,2.30
2023-02-16T13:24:52.156Z,2.30
2023-02-16T13:27:57.894Z,2.40
2023-02-16T13:30:33.966Z,2.40
2023-02-16T13:33:18.728Z,2.50
2023-02-16T13:36:09.968Z,2.40
2023-02-16T13:38:59.706Z,2.40
2023-02-16T13:41:40.256Z,2.40
2023-02-16T13:44:18.904Z,2.40
2023-02-16T13:46:53.855Z,2.40
2023-02-16T13:49:42.255Z,2.30
2023-02-16T13:52:39.507Z,2.30
2023-02-16T13:55:24.974Z,2.30
2023-02-16T13:58:04.459Z,2.20
2023-02-16T14:00:42.634Z,2.20
2023-02-16T14:03:21.084Z,2.20
2023-02-16T14:05:55.877Z,2.30
2023-02-16T14:08:29.546Z,2.40
2023-02-16T14:11:04.021Z,2.30
2023-02-16T14:13:38.502Z,2.30
2023-02-16T14:16:13.246Z,2.30
2023-02-16T14:18:58.475Z,3.20
2023-02-16T14:21:35.983Z,2.30
2023-02-16T14:24:13.456Z,2.30
2023-02-16T14:27:13.003Z,2.30
2023-02-16T14:30:00.526Z,2.20
2023-02-16T14:32:38.537Z,2.10
2023-02-16T14:35:22.892Z,2.10
2023-02-16T14:38:03.470Z,2.10
2023-02-16T14:40:35.259Z,2.10
2023-02-16T14:43:22.918Z,2.00
2023-02-16T14:46:13.717Z,2.00
2023-02-16T14:49:16.316Z,2.00
2023-02-16T14:52:12.936Z,2.00
2023-02-16T14:55:07.661Z,1.90
2023-02-16T14:57:50.189Z,1.90
2023-02-16T15:00:31.139Z,1.80
2023-02-16T15:03:26.992Z,1.70
2023-02-16T15:06:06.271Z,1.70
2023-02-16T15:08:40.172Z,-0.70
2023-02-16T15:11:16.918Z,1.50
2023-02-16T15:13:53.400Z,1.50
2023-02-16T15:16:25.143Z,1.50
2023-02-16T15:18:57.476Z,1.60
2023-02-16T15:21:30.595Z,1.50
2023-02-16T15:24:02.367Z,1.50
2023-02-16T15:26:35.822Z,1.50
2023-02-16T15:29:33.919Z,1.50
2023-02-16T15:32:07.047Z,1.40
2023-02-16T15:34:41.078Z,1.40
2023-02-16T15:37:29.630Z,1.50
2023-02-16T15:40:25.396Z,1.50
2023-02-16T15:43:07.819Z,1.50
2023-02-16T15:45:39.587Z,1.50
2023-02-16T15:48:26.447Z,1.40
2023-02-16T15:51:06.888Z,1.40
2023-02-16T15:53:46.773Z,1.30
2023-02-16T15:56:47.261Z,1.30
2023-02-16T15:59:22.263Z,1.20
2023-02-16T16:02:12.119Z,1.20
2023-02-16T16:04:50.081Z,1.20
2023-02-16T16:07:26.609Z,1.20
2023-02-16T16:09:59.611Z,1.20
2023-02-16T16:12:31.513Z,1.10
2023-02-16T16:15:04.444Z,1.10
2023-02-16T16:17:39.595Z,1.10
2023-02-16T16:20:30.967Z,1.10
2023-02-16T16:23:24.378Z,1.10
2023-02-16T16:25:56.652Z,1.00
2023-02-16T16:28:28.365Z,1.00
2023-02-16T16:31:11.739Z,1.00
2023-02-16T16:33:59.556Z,3.30
2023-02-16T16:36:45.618Z,1.00
2023-02-16T16:39:17.329Z,0.90
2023-02-16T16:42:18.149Z,0.90
2023-02-16T16:44:56.944Z,0.90
2023-02-16T16:47:40.258Z,0.80
2023-02-16T16:50:14.386Z,0.80
2023-02-16T16:52:48.938Z,0.80
2023-02-16T16:55:24.974Z,0.80
2023-02-16T16:58:04.250Z,0.80
2023-02-16T17:00:38.975Z,0.80
2023-02-16T17:03:15.458Z,0.80
2023-02-16T17:05:47.424Z,0.70
2023-02-16T17:08:19.247Z,0.70
2023-02-16T17:10:51.027Z,0.70
2023-02-16T17:13:22.730Z,0.60
2023-02-16T17:16:01.071Z,0.60
2023-02-16T17:18:33.000Z,0.60
2023-02-16T17:21:05.281Z,0.60
2023-02-16T17:23:45.209Z,0.60
2023-02-16T17:26:22.818Z,0.70
2023-02-16T17:28:54.498Z,0.60
2023-02-16T17:31:26.338Z,0.60
2023-02-16T17:33:58.140Z,0.70
2023-02-16T17:36:30.133Z,0.70
2023-02-16T17:39:01.957Z,0.60
2023-02-16T17:41:33.693Z,0.60
2023-02-16T17:44:05.448Z,0.60
2023-02-16T17:46:37.171Z,0.50
2023-02-16T17:49:11.189Z,0.60
2023-02-16T17:51:42.887Z,0.50
2023-02-16T17:54:14.576Z,0.50
2023-02-16T17:56:47.077Z,0.50
2023-02-16T17:59:18.777Z,0.50
2023-02-16T18:01:50.473Z,0.50
2023-02-16T18:04:22.410Z,0.50
2023-02-16T18:06:54.163Z,0.60
2023-02-16T18:09:25.841Z,0.50
2023-02-16T18:11:57.582Z,0.50
2023-02-16T18:14:29.312Z,0.50
2023-02-16T18:17:01.472Z,0.50
2023-02-16T18:19:34.258Z,0.50
2023-02-16T18:22:05.978Z,0.50
2023-02-16T18:24:37.687Z,0.50
2023-02-16T18:27:10.336Z,0.50
2023-02-16T18:29:42.061Z,0.50
2023-02-16T18:32:13.776Z,0.40
2023-02-16T18:34:45.596Z,0.40
2023-02-16T18:37:17.384Z,0.50
2023-02-16T18:39:49.118Z,0.50
2023-02-16T18:42:20.911Z,0.40
2023-02-16T18:44:52.681Z,0.40
2023-02-16T18:47:24.526Z,0.50
2023-02-16T18:49:56.337Z,0.50
2023-02-16T18:52:28.077Z,0.40
2023-02-16T18:54:59.781Z,0.40
2023-02-16T18:57:31.536Z,0.40
2023-02-16T19:00:06.702Z,0.40
2023-02-16T19:02:40.736Z,0.30
2023-02-16T19:05:12.500Z,0.30
2023-02-16T19:07:44.211Z,0.30
2023-02-16T19:10:16.891Z,0.40
2023-02-16T19:12:48.619Z,0.40
2023-02-16T19:15:20.401Z,0.40
2023-02-16T19:17:52.285Z,0.40
2023-02-16T19:20:24.227Z,0.40
2023-02-16T19:22:56.358Z,0.40
2023-02-16T19:25:29.272Z,0.40
2023-02-16T19:28:01.017Z,0.40
2023-02-16T19:30:32.960Z,0.50
2023-02-16T19:33:04.752Z,0.50
2023-02-16T19:35:36.517Z,0.40
2023-02-16T19:38:08.287Z,0.40
2023-02-16T19:40:40.041Z,0.40
2023-02-16T19:43:11.774Z,0.40
2023-02-16T19:45:43.472Z,0.40
2023-02-16T19:48:15.222Z,0.40
2023-02-16T19:50:46.967Z,0.40
2023-02-16T19:53:18.665Z,0.30
2023-02-16T19:55:52.295Z,0.30
2023-02-16T19:58:25.301Z,0.30
2023-02-16T20:00:57.099Z,0.30
2023-02-16T20:03:28.851Z,0.30
2023-02-16T20:06:00.681Z,0.40
2023-02-16T20:08:32.419Z,0.40
2023-02-16T20:11:04.923Z,0.40
2023-02-16T20:13:36.910Z,0.40
2023-02-16T20:16:09.897Z,0.40
2023-02-16T20:18:42.295Z,0.40
2023-02-16T20:21:17.416Z,0.40
2023-02-16T20:23:55.486Z,0.40
2023-02-16T20:26:34.741Z,0.40
2023-02-16T20:29:08.531Z,0.40
2023-02-16T20:31:51.308Z,0.40
2023-02-16T20:34:25.951Z,0.40
2023-02-16T20:36:58.346Z,0.40
2023-02-16T20:39:30.129Z,0.40
2023-02-16T20:42:01.870Z,0.40
2023-02-16T20:44:33.619Z,0.40
2023-02-16T20:47:07.980Z,0.40
2023-02-16T20:49:39.755Z,0.50
2023-02-16T20:52:11.575Z,0.30
2023-02-16T20:54:43.330Z,0.30
2023-02-16T20:57:26.015Z,0.30
2023-02-16T20:59:58.701Z,0.20
2023-02-16T21:02:30.452Z,0.20
2023-02-16T21:05:02.157Z,0.30
2023-02-16T21:07:33.989Z,0.30
2023-02-16T21:10:08.002Z,0.20
2023-02-16T21:12:39.761Z,0.20
2023-02-16T21:15:12.492Z,0.20
2023-02-16T21:17:44.483Z,0.20
2023-02-16T21:20:16.499Z,0.20
2023-02-16T21:22:48.321Z,0.20
2023-02-16T21:25:20.047Z,0.20
2023-02-16T21:27:51.752Z,0.20
2023-02-16T21:30:23.853Z,0.30
2023-02-16T21:32:55.887Z,0.30
2023-02-16T21:35:28.027Z,0.30
2023-02-16T21:37:59.914Z,0.30
2023-02-16T21:40:50.105Z,0.30
2023-02-16T21:43:21.933Z,0.30
2023-02-16T21:46:01.120Z,0.30
2023-02-16T21:48:48.390Z,0.30
2023-02-16T21:51:24.315Z,0.30
2023-02-16T21:53:57.084Z,0.30
2023-02-16T21:56:39.355Z,0.30
2023-02-16T21:59:13.987Z,0.30
2023-02-16T22:01:48.635Z,0.30
2023-02-16T22:04:22.624Z,0.30
2023-02-16T22:06:55.988Z,0.30
2023-02-16T22:09:27.731Z,0.40
2023-02-16T22:11:59.435Z,0.40
2023-02-16T22:14:33.186Z,0.40
2023-02-16T22:17:06.566Z,0.40
2023-02-16T22:19:38.286Z,0.40
2023-02-16T22:22:10.528Z,0.40
2023-02-16T22:24:42.367Z,0.40
2023-02-16T22:27:14.094Z,0.40
2023-02-16T22:29:45.830Z,0.40
2023-02-16T22:32:17.675Z,0.40
2023-02-16T22:34:49.496Z,0.40
2023-02-16T22:37:21.346Z,0.70
2023-02-16T22:39:55.117Z,0.40
2023-02-16T22:42:27.064Z,0.40
2023-02-16T22:44:58.925Z,0.50
2023-02-16T22:47:31.327Z,0.40
2023-02-16T22:50:03.082Z,0.50
2023-02-16T22:52:36.353Z,0.50
2023-02-16T22:55:08.606Z,0.50
2023-02-16T22:57:40.402Z,0.50
2023-02-16T23:00:15.268Z,0.50
2023-02-16T23:02:47.232Z,0.50
2023-02-16T23:05:20.185Z,0.50
2023-02-16T23:07:51.881Z,0.50
2023-02-16T23:10:23.593Z,0.40
2023-02-16T23:12:55.410Z,0.40
2023-02-16T23:15:27.132Z,0.40
2023-02-16T23:17:58.961Z,0.50
2023-02-16T23:20:30.985Z,0.50
2023-02-16T23:23:02.700Z,0.40
2023-02-16T23:25:34.466Z,0.40
2023-02-16T23:28:06.271Z,0.40
2023-02-16T23:30:42.586Z,0.40
2023-02-16T23:33:14.660Z,0.40
2023-02-16T23:35:46.358Z,0.40
2023-02-16T23:38:18.689Z,0.40
2023-02-16T23:41:01.636Z,0.50
2023-02-16T23:43:33.769Z,0.50
2023-02-16T23:46:06.291Z,0.50
2023-02-16T23:48:38.527Z,0.50
2023-02-16T23:51:12.060Z,0.50
2023-02-16T23:53:44.135Z,0.50
2023-02-16T23:56:19.059Z,0.50
2023-02-16T23:58:51.528Z,0.50
